Time;durP1;ratioP1;P1;durP2;ratioP2;P2;SDS_P1;SDS_P2;PMS_P1;PMS_P2;Temp;Humidity;BMP_temperature;BMP_pressure;BME280_temperature;BME280_humidity;BME280_pressure;Samples;Min_cycle;Max_cycle;Signal;HPM_P1;HPM_P2
2023/05/09 00:01:30;;;;;;;14.90;10.55;;;;;;;;;;4918510;29;20025;-73
2023/05/09 00:04:15;;;;;;;14.40;10.60;;;;;;;;;;4923879;28;20085;-69
2023/05/09 00:07:00;;;;;;;15.00;10.63;;;;;;;;;;4929593;28;20036;-72
2023/05/09 00:09:45;;;;;;;18.27;11.43;;;;;;;;;;4924600;28;20040;-70
2023/05/09 00:12:31;;;;;;;12.52;9.32;;;;;;;;;;4929153;29;20024;-75
2023/05/09 00:15:16;;;;;;;14.80;10.13;;;;;;;;;;4928208;28;20081;-71
2023/05/09 00:18:01;;;;;;;13.43;10.20;;;;;;;;;;4923310;29;20115;-70
2023/05/09 00:20:47;;;;;;;12.60;8.70;;;;;;;;;;4922118;28;20023;-71
2023/05/09 00:23:32;;;;;;;12.13;8.80;;;;;;;;;;4924189;28;20023;-71
2023/05/09 00:26:17;;;;;;;15.95;9.30;;;;;;;;;;4926205;29;20043;-70
2023/05/09 00:29:03;;;;;;;13.18;9.10;;;;;;;;;;4925355;28;20063;-72
2023/05/09 00:31:48;;;;;;;11.85;8.95;;;;;;;;;;4923393;28;20038;-70
2023/05/09 00:34:33;;;;;;;14.02;11.10;;;;;;;;;;4925306;28;20471;-70
2023/05/09 00:37:19;;;;;;;15.93;11.10;;;;;;;;;;4924390;29;20082;-70
2023/05/09 00:40:06;;;;;;;15.68;10.82;;;;;;;;;;4943907;28;20110;-74
2023/05/09 00:42:51;;;;;;;17.25;10.63;;;;;;;;;;4921565;29;20486;-67
2023/05/09 00:45:36;;;;;;;13.88;10.90;;;;;;;;;;4932394;28;20051;-66
2023/05/09 00:48:22;;;;;;;17.15;10.85;;;;;;;;;;4924757;29;20047;-65
2023/05/09 00:51:07;;;;;;;15.52;11.15;;;;;;;;;;4923098;28;20058;-65
2023/05/09 00:53:52;;;;;;;16.27;9.20;;;;;;;;;;4922552;29;20035;-66
2023/05/09 00:56:38;;;;;;;13.95;9.45;;;;;;;;;;4924990;29;20028;-73
2023/05/09 00:59:23;;;;;;;15.57;10.07;;;;;;;;;;4927238;28;20126;-69
2023/05/09 01:02:08;;;;;;;12.25;8.55;;;;;;;;;;4922266;29;20036;-69
2023/05/09 01:04:53;;;;;;;11.35;8.75;;;;;;;;;;4924677;28;20043;-70
2023/05/09 01:07:50;;;;;;;11.82;9.30;;;;;;;;;;4923993;28;20027;-72
2023/05/09 01:10:35;;;;;;;17.63;9.48;;;;;;;;;;4922919;28;20082;-69
2023/05/09 01:13:26;;;;;;;13.55;8.88;;;;;;;;;;4920216;28;21074;-70
2023/05/09 01:16:31;;;;;;;13.55;9.40;;;;;;;;;;4928416;28;20032;-69
2023/05/09 01:19:35;;;;;;;13.65;9.73;;;;;;;;;;4923178;28;20490;-68
2023/05/09 01:22:24;;;;;;;14.23;9.43;;;;;;;;;;4931946;28;20546;-67
2023/05/09 01:25:28;;;;;;;14.02;10.77;;;;;;;;;;4924390;29;20094;-69
2023/05/09 01:28:17;;;;;;;18.42;10.77;;;;;;;;;;4926961;29;20036;-69
2023/05/09 01:31:03;;;;;;;15.60;10.80;;;;;;;;;;4922643;28;20031;-68
2023/05/09 01:33:51;;;;;;;15.63;10.02;;;;;;;;;;4925622;29;20036;-71
2023/05/09 01:36:38;;;;;;;15.35;10.63;;;;;;;;;;4926319;28;20036;-72
2023/05/09 01:39:25;;;;;;;16.70;10.43;;;;;;;;;;4928443;28;20086;-68
2023/05/09 01:42:11;;;;;;;17.65;11.18;;;;;;;;;;4929105;28;20067;-67
2023/05/09 01:44:58;;;;;;;12.90;9.40;;;;;;;;;;4923948;29;20055;-69
2023/05/09 01:47:43;;;;;;;14.18;9.80;;;;;;;;;;4931198;28;20044;-69
2023/05/09 01:50:29;;;;;;;14.85;11.35;;;;;;;;;;4927967;28;21602;-67
2023/05/09 01:53:16;;;;;;;14.00;10.52;;;;;;;;;;4939864;28;20466;-73
2023/05/09 01:56:02;;;;;;;15.82;10.20;;;;;;;;;;4924276;28;20058;-68
2023/05/09 01:58:49;;;;;;;13.55;10.27;;;;;;;;;;4925471;28;20097;-65
2023/05/09 02:01:34;;;;;;;16.65;11.35;;;;;;;;;;4930916;28;20273;-65
2023/05/09 02:04:20;;;;;;;16.83;12.20;;;;;;;;;;4928130;28;20106;-66
2023/05/09 02:07:06;;;;;;;16.98;12.98;;;;;;;;;;4929228;29;20031;-65
2023/05/09 02:09:53;;;;;;;18.45;13.18;;;;;;;;;;4927301;28;20032;-66
2023/05/09 02:12:38;;;;;;;15.63;11.43;;;;;;;;;;4928581;28;20050;-66
2023/05/09 02:15:25;;;;;;;20.33;13.52;;;;;;;;;;4925702;29;20032;-71
2023/05/09 02:18:10;;;;;;;15.30;11.15;;;;;;;;;;4924857;28;20032;-70
2023/05/09 02:20:55;;;;;;;18.83;13.43;;;;;;;;;;4932328;29;20032;-69
2023/05/09 02:23:40;;;;;;;15.23;11.30;;;;;;;;;;4930844;29;20039;-70
2023/05/09 02:26:27;;;;;;;23.45;15.73;;;;;;;;;;4929389;28;20051;-70
2023/05/09 02:29:12;;;;;;;18.42;13.85;;;;;;;;;;4928191;29;20035;-68
2023/05/09 02:31:59;;;;;;;16.67;12.80;;;;;;;;;;4917103;28;20028;-74
2023/05/09 02:34:44;;;;;;;19.35;11.60;;;;;;;;;;4931112;28;20229;-73
2023/05/09 02:37:30;;;;;;;17.52;12.13;;;;;;;;;;4928962;28;20425;-73
2023/05/09 02:40:16;;;;;;;16.40;12.68;;;;;;;;;;4925636;29;20034;-73
2023/05/09 02:43:01;;;;;;;22.08;15.45;;;;;;;;;;4927020;29;20493;-74
2023/05/09 02:45:46;;;;;;;21.48;15.18;;;;;;;;;;4926343;28;20044;-74
2023/05/09 02:48:32;;;;;;;18.95;13.50;;;;;;;;;;4940391;28;20486;-69
2023/05/09 02:51:17;;;;;;;18.80;13.43;;;;;;;;;;4926065;28;20286;-69
2023/05/09 02:54:02;;;;;;;17.83;12.52;;;;;;;;;;4931155;28;20028;-69
2023/05/09 02:56:47;;;;;;;21.48;15.60;;;;;;;;;;4927870;29;20040;-68
2023/05/09 02:59:32;;;;;;;17.65;12.27;;;;;;;;;;4926990;29;20510;-70
2023/05/09 03:02:18;;;;;;;20.77;14.93;;;;;;;;;;4926437;28;20046;-69
2023/05/09 03:05:03;;;;;;;22.10;15.27;;;;;;;;;;4925847;29;20185;-67
2023/05/09 03:07:50;;;;;;;18.45;13.15;;;;;;;;;;4925844;28;20044;-70
2023/05/09 03:10:35;;;;;;;17.90;13.48;;;;;;;;;;4927941;28;20051;-69
2023/05/09 03:13:20;;;;;;;17.08;13.00;;;;;;;;;;4922057;28;20539;-67
2023/05/09 03:16:05;;;;;;;16.95;12.23;;;;;;;;;;4923971;28;20040;-67
2023/05/09 03:18:51;;;;;;;19.45;12.00;;;;;;;;;;4922880;28;20170;-67
2023/05/09 03:21:36;;;;;;;16.70;13.25;;;;;;;;;;4925352;28;20036;-67
2023/05/09 03:24:22;;;;;;;19.73;13.48;;;;;;;;;;4933422;29;20034;-72
2023/05/09 03:27:07;;;;;;;19.20;13.02;;;;;;;;;;4932413;28;20162;-73
2023/05/09 03:29:52;;;;;;;19.38;13.50;;;;;;;;;;4955991;28;20036;-74
2023/05/09 03:32:37;;;;;;;24.25;14.40;;;;;;;;;;4941663;28;20039;-73
2023/05/09 03:35:23;;;;;;;20.75;15.43;;;;;;;;;;4920156;28;20122;-74
2023/05/09 03:38:08;;;;;;;21.23;13.80;;;;;;;;;;4927598;29;20127;-72
2023/05/09 03:40:54;;;;;;;16.92;12.23;;;;;;;;;;4932625;28;20035;-75
2023/05/09 03:43:39;;;;;;;19.00;12.82;;;;;;;;;;4931353;28;20035;-68
2023/05/09 03:46:24;;;;;;;21.40;14.30;;;;;;;;;;4923011;29;20036;-65
2023/05/09 03:49:09;;;;;;;17.88;14.13;;;;;;;;;;4925541;28;20560;-64
2023/05/09 03:51:55;;;;;;;18.60;13.32;;;;;;;;;;4926704;28;20040;-65
2023/05/09 03:54:40;;;;;;;17.23;13.82;;;;;;;;;;4925263;28;20035;-68
2023/05/09 03:57:25;;;;;;;18.42;13.52;;;;;;;;;;4933946;28;20043;-67
2023/05/09 04:00:11;;;;;;;18.95;14.43;;;;;;;;;;4944779;28;20031;-65
2023/05/09 04:02:56;;;;;;;18.70;13.98;;;;;;;;;;4928947;28;20031;-70
2023/05/09 04:05:41;;;;;;;16.30;12.57;;;;;;;;;;4926099;28;20078;-70
2023/05/09 04:08:27;;;;;;;27.13;15.27;;;;;;;;;;4928203;29;20043;-69
2023/05/09 04:11:12;;;;;;;17.88;13.07;;;;;;;;;;4927547;28;20114;-68
2023/05/09 04:13:57;;;;;;;19.45;13.15;;;;;;;;;;4931702;28;20070;-69
2023/05/09 04:16:42;;;;;;;18.38;13.82;;;;;;;;;;4926582;28;20058;-70
2023/05/09 04:19:27;;;;;;;20.10;14.75;;;;;;;;;;4925168;29;20063;-70
2023/05/09 04:22:13;;;;;;;18.63;13.55;;;;;;;;;;4927308;29;20131;-74
2023/05/09 04:24:58;;;;;;;27.05;14.23;;;;;;;;;;4923514;28;20036;-69
2023/05/09 04:27:43;;;;;;;19.70;15.23;;;;;;;;;;4933155;29;20084;-70
2023/05/09 04:30:28;;;;;;;21.83;15.00;;;;;;;;;;4938734;29;20035;-68
2023/05/09 04:33:14;;;;;;;20.35;14.10;;;;;;;;;;4933651;28;20054;-69
2023/05/09 04:35:59;;;;;;;21.67;14.77;;;;;;;;;;4924256;29;20755;-70
2023/05/09 04:38:45;;;;;;;20.48;14.48;;;;;;;;;;4925747;28;20499;-74
2023/05/09 04:41:30;;;;;;;19.33;14.55;;;;;;;;;;4919742;28;20039;-71
2023/05/09 04:44:16;;;;;;;17.75;13.00;;;;;;;;;;4922022;28;20479;-73
2023/05/09 04:47:01;;;;;;;21.42;15.52;;;;;;;;;;4916190;28;20043;-73
2023/05/09 04:49:46;;;;;;;19.80;14.43;;;;;;;;;;4922588;28;20067;-69
2023/05/09 04:52:31;;;;;;;20.02;14.90;;;;;;;;;;4919955;28;20477;-71
2023/05/09 04:55:16;;;;;;;22.65;15.52;;;;;;;;;;4922284;28;20039;-71
2023/05/09 04:58:02;;;;;;;20.30;15.27;;;;;;;;;;4919258;29;20130;-71
2023/05/09 05:00:48;;;;;;;25.77;16.52;;;;;;;;;;4933492;29;20032;-71
2023/05/09 05:03:33;;;;;;;18.90;14.82;;;;;;;;;;4925874;29;20491;-72
2023/05/09 05:06:18;;;;;;;19.05;15.07;;;;;;;;;;4926142;29;20066;-72
2023/05/09 05:09:03;;;;;;;23.70;16.17;;;;;;;;;;4928608;28;20127;-71
2023/05/09 05:11:49;;;;;;;23.42;15.98;;;;;;;;;;4926836;28;20386;-72
2023/05/09 05:14:34;;;;;;;20.15;13.85;;;;;;;;;;4925547;28;20027;-67
2023/05/09 05:17:19;;;;;;;18.48;13.23;;;;;;;;;;4918978;28;20032;-69
2023/05/09 05:20:05;;;;;;;17.75;13.20;;;;;;;;;;4936314;28;20051;-70
2023/05/09 05:22:50;;;;;;;18.33;14.75;;;;;;;;;;4947536;28;20115;-69
2023/05/09 05:25:35;;;;;;;19.73;13.93;;;;;;;;;;4925490;29;20036;-70
2023/05/09 05:28:21;;;;;;;24.38;15.15;;;;;;;;;;4929260;29;20127;-72
2023/05/09 05:31:06;;;;;;;21.20;15.38;;;;;;;;;;4928361;29;20032;-69
2023/05/09 05:33:51;;;;;;;18.80;13.23;;;;;;;;;;4943223;28;20504;-71
2023/05/09 05:36:36;;;;;;;19.27;14.45;;;;;;;;;;4927438;29;20047;-71
2023/05/09 05:39:21;;;;;;;20.13;14.38;;;;;;;;;;4930001;29;20035;-70
2023/05/09 05:42:07;;;;;;;19.40;14.77;;;;;;;;;;4928352;29;20053;-69
2023/05/09 05:44:52;;;;;;;20.10;14.38;;;;;;;;;;4929904;29;20063;-69
2023/05/09 05:47:37;;;;;;;17.60;13.38;;;;;;;;;;4983516;28;20036;-67
2023/05/09 05:50:23;;;;;;;19.00;14.30;;;;;;;;;;4942024;28;20042;-70
2023/05/09 05:53:08;;;;;;;21.33;14.52;;;;;;;;;;4928423;29;20038;-67
2023/05/09 05:55:53;;;;;;;21.55;15.48;;;;;;;;;;4924243;28;20020;-68
2023/05/09 05:58:38;;;;;;;16.38;12.48;;;;;;;;;;4923587;29;20504;-69
2023/05/09 06:01:23;;;;;;;20.08;13.77;;;;;;;;;;4929293;28;20162;-69
2023/05/09 06:04:09;;;;;;;20.02;13.70;;;;;;;;;;4932690;29;20102;-69
2023/05/09 06:06:54;;;;;;;18.85;14.60;;;;;;;;;;4926616;29;20032;-73
2023/05/09 06:09:39;;;;;;;19.50;14.02;;;;;;;;;;4927729;29;20047;-64
2023/05/09 06:12:25;;;;;;;20.52;14.73;;;;;;;;;;4943339;28;20110;-70
2023/05/09 06:15:10;;;;;;;23.15;15.93;;;;;;;;;;4925253;29;20077;-74
2023/05/09 06:17:55;;;;;;;21.92;16.00;;;;;;;;;;4925684;28;20024;-76
2023/05/09 06:20:40;;;;;;;23.08;15.90;;;;;;;;;;4925573;29;20031;-78
2023/05/09 06:23:26;;;;;;;19.40;15.43;;;;;;;;;;4928904;29;20052;-75
2023/05/09 06:26:13;;;;;;;19.85;15.93;;;;;;;;;;4929799;28;20054;-76
2023/05/09 06:28:58;;;;;;;22.40;15.52;;;;;;;;;;4924134;29;20047;-70
2023/05/09 06:31:43;;;;;;;21.25;16.85;;;;;;;;;;4932399;28;20032;-68
2023/05/09 06:34:29;;;;;;;25.90;16.92;;;;;;;;;;4927924;29;20039;-71
2023/05/09 06:37:14;;;;;;;20.63;16.65;;;;;;;;;;4925109;29;20130;-70
2023/05/09 06:39:59;;;;;;;21.98;17.02;;;;;;;;;;4924624;28;20078;-68
2023/05/09 06:42:44;;;;;;;22.10;16.00;;;;;;;;;;4927562;29;20122;-70
2023/05/09 06:45:30;;;;;;;20.65;15.95;;;;;;;;;;4925211;29;20330;-70
2023/05/09 06:48:15;;;;;;;22.40;16.75;;;;;;;;;;4925444;29;20028;-66
2023/05/09 06:51:00;;;;;;;24.50;17.08;;;;;;;;;;4924357;29;20394;-66
2023/05/09 06:53:45;;;;;;;23.65;17.42;;;;;;;;;;4925019;29;20406;-68
2023/05/09 06:56:30;;;;;;;22.88;18.05;;;;;;;;;;4927721;29;20050;-65
2023/05/09 06:59:16;;;;;;;18.88;14.50;;;;;;;;;;4928467;29;20039;-67
2023/05/09 07:02:01;;;;;;;21.20;15.48;;;;;;;;;;4928865;29;20414;-67
2023/05/09 07:04:46;;;;;;;28.52;15.38;;;;;;;;;;4927622;29;20039;-69
2023/05/09 07:07:32;;;;;;;19.20;14.20;;;;;;;;;;4938401;28;20081;-72
2023/05/09 07:10:17;;;;;;;18.90;15.20;;;;;;;;;;4917607;29;20490;-74
2023/05/09 07:13:02;;;;;;;18.10;13.98;;;;;;;;;;4927155;29;20036;-76
2023/05/09 07:15:47;;;;;;;18.25;14.10;;;;;;;;;;4932235;28;20043;-70
2023/05/09 07:18:33;;;;;;;23.50;14.65;;;;;;;;;;4925830;29;20062;-72
2023/05/09 07:21:18;;;;;;;18.35;13.02;;;;;;;;;;4926604;29;20336;-71
2023/05/09 07:24:05;;;;;;;21.10;15.27;;;;;;;;;;4923367;29;20123;-76
2023/05/09 07:26:50;;;;;;;18.75;14.77;;;;;;;;;;4922489;29;20118;-74
2023/05/09 07:29:35;;;;;;;21.42;15.88;;;;;;;;;;4928034;29;20375;-76
2023/05/09 07:32:20;;;;;;;19.75;13.65;;;;;;;;;;4922787;29;20069;-76
2023/05/09 07:35:06;;;;;;;20.20;14.93;;;;;;;;;;4930670;28;20028;-77
2023/05/09 07:37:51;;;;;;;19.45;13.90;;;;;;;;;;4923040;29;20068;-74
2023/05/09 07:40:37;;;;;;;22.02;15.80;;;;;;;;;;4932758;29;20240;-77
2023/05/09 07:43:22;;;;;;;19.50;13.57;;;;;;;;;;4926340;29;20493;-68
2023/05/09 07:46:08;;;;;;;20.92;14.00;;;;;;;;;;4926864;29;20028;-72
2023/05/09 07:48:53;;;;;;;18.30;11.85;;;;;;;;;;4924445;29;20474;-70
2023/05/09 07:51:38;;;;;;;19.25;13.05;;;;;;;;;;4927341;28;20028;-71
2023/05/09 07:54:23;;;;;;;17.00;10.70;;;;;;;;;;4923771;29;20035;-70
2023/05/09 07:57:09;;;;;;;14.32;11.00;;;;;;;;;;4925702;29;20166;-70
2023/05/09 07:59:54;;;;;;;18.15;11.43;;;;;;;;;;4932761;28;20039;-68
2023/05/09 08:02:39;;;;;;;16.58;9.57;;;;;;;;;;4928673;29;20035;-67
2023/05/09 08:05:25;;;;;;;12.40;9.38;;;;;;;;;;4923526;29;20040;-70
2023/05/09 08:08:10;;;;;;;13.13;8.73;;;;;;;;;;4963803;28;20039;-69
2023/05/09 08:10:55;;;;;;;14.15;8.50;;;;;;;;;;4941189;28;20497;-70
2023/05/09 08:13:40;;;;;;;10.45;7.65;;;;;;;;;;4931019;29;20498;-69
2023/05/09 08:16:26;;;;;;;10.73;7.05;;;;;;;;;;4932383;28;20024;-69
2023/05/09 08:19:11;;;;;;;14.65;8.30;;;;;;;;;;4925659;29;20035;-74
2023/05/09 08:21:56;;;;;;;7.50;5.82;;;;;;;;;;4925838;29;20135;-71
2023/05/09 08:24:41;;;;;;;6.80;4.50;;;;;;;;;;4925969;29;20028;-72
2023/05/09 08:27:27;;;;;;;5.90;3.72;;;;;;;;;;4924514;29;20082;-69
2023/05/09 08:30:12;;;;;;;8.25;5.53;;;;;;;;;;4980991;28;20028;-71
2023/05/09 08:32:57;;;;;;;6.32;4.80;;;;;;;;;;4926871;29;20043;-70
2023/05/09 08:35:43;;;;;;;7.88;5.82;;;;;;;;;;4927095;29;20036;-70
2023/05/09 08:38:28;;;;;;;8.90;5.75;;;;;;;;;;4926603;29;20514;-68
2023/05/09 08:41:13;;;;;;;7.55;4.30;;;;;;;;;;4923270;29;20187;-71
2023/05/09 08:43:59;;;;;;;7.68;4.82;;;;;;;;;;4945127;28;20348;-70
2023/05/09 08:46:46;;;;;;;7.65;5.93;;;;;;;;;;4927843;29;20051;-70
2023/05/09 08:49:32;;;;;;;10.60;6.47;;;;;;;;;;4925681;28;20032;-71
2023/05/09 08:52:17;;;;;;;10.15;7.13;;;;;;;;;;4926978;29;20031;-71
2023/05/09 08:55:06;;;;;;;9.65;5.88;;;;;;;;;;4924947;29;20078;-67
2023/05/09 08:57:53;;;;;;;13.60;8.27;;;;;;;;;;4933112;28;20075;-69
2023/05/09 09:00:40;;;;;;;11.82;7.97;;;;;;;;;;4938975;28;20031;-70
2023/05/09 09:03:25;;;;;;;11.52;6.85;;;;;;;;;;4924560;29;20039;-71
2023/05/09 09:06:10;;;;;;;9.80;7.22;;;;;;;;;;4925524;29;20035;-69
2023/05/09 09:08:56;;;;;;;11.00;8.82;;;;;;;;;;4928406;28;20441;-68
2023/05/09 09:11:41;;;;;;;12.40;8.43;;;;;;;;;;4924858;28;20191;-69
2023/05/09 09:14:27;;;;;;;14.30;9.75;;;;;;;;;;4918341;29;20494;-72
2023/05/09 09:17:14;;;;;;;12.77;9.20;;;;;;;;;;4932097;29;20063;-76
2023/05/09 09:20:08;;;;;;;12.65;8.40;;;;;;;;;;4924330;28;20032;-77
2023/05/09 09:22:56;;;;;;;11.43;7.50;;;;;;;;;;4922703;29;20085;-76
2023/05/09 09:25:44;;;;;;;9.43;6.70;;;;;;;;;;4925602;29;20044;-76
2023/05/09 09:28:29;;;;;;;9.50;6.70;;;;;;;;;;4924557;29;20042;-72
2023/05/09 09:31:21;;;;;;;12.55;7.85;;;;;;;;;;4925087;29;20040;-72
2023/05/09 09:34:06;;;;;;;11.45;6.07;;;;;;;;;;4921655;29;20036;-70
2023/05/09 09:36:51;;;;;;;12.35;7.13;;;;;;;;;;4925777;29;20423;-69
2023/05/09 09:39:37;;;;;;;14.40;6.93;;;;;;;;;;4920080;29;20032;-68
2023/05/09 09:42:25;;;;;;;12.65;8.70;;;;;;;;;;4937766;28;20042;-72
2023/05/09 09:45:11;;;;;;;9.13;6.82;;;;;;;;;;4936151;28;20549;-69
2023/05/09 09:47:56;;;;;;;9.63;6.40;;;;;;;;;;4926953;29;20039;-69
2023/05/09 09:50:41;;;;;;;10.05;6.57;;;;;;;;;;4924804;29;20502;-68
2023/05/09 09:53:29;;;;;;;10.75;6.28;;;;;;;;;;4938917;28;20650;-75
2023/05/09 09:56:14;;;;;;;11.20;6.60;;;;;;;;;;4923108;29;20127;-72
2023/05/09 09:59:12;;;;;;;9.15;6.88;;;;;;;;;;4925580;29;20035;-74
2023/05/09 10:01:59;;;;;;;10.93;7.25;;;;;;;;;;4917213;29;20372;-75
2023/05/09 10:04:44;;;;;;;11.38;6.88;;;;;;;;;;4928146;29;20047;-73
2023/05/09 10:07:32;;;;;;;13.05;7.90;;;;;;;;;;4924847;28;20086;-75
2023/05/09 10:10:17;;;;;;;12.48;8.38;;;;;;;;;;4927320;29;20032;-70
2023/05/09 10:13:03;;;;;;;11.43;8.30;;;;;;;;;;4924574;29;20030;-77
2023/05/09 10:15:49;;;;;;;10.63;7.80;;;;;;;;;;4939045;28;20067;-74
2023/05/09 10:18:34;;;;;;;9.77;6.70;;;;;;;;;;4941068;28;20036;-74
2023/05/09 10:21:19;;;;;;;8.27;6.30;;;;;;;;;;4933300;29;20029;-77
2023/05/09 10:24:06;;;;;;;9.73;7.43;;;;;;;;;;4926251;29;20020;-79
2023/05/09 10:26:52;;;;;;;12.05;7.75;;;;;;;;;;4928647;29;20122;-69
2023/05/09 10:29:43;;;;;;;12.40;7.95;;;;;;;;;;4941873;28;20121;-69
2023/05/09 10:32:28;;;;;;;10.00;6.68;;;;;;;;;;4939746;29;20039;-71
2023/05/09 10:35:15;;;;;;;11.65;9.02;;;;;;;;;;4927342;29;20028;-69
2023/05/09 10:38:01;;;;;;;10.57;7.28;;;;;;;;;;4928810;29;20374;-67
2023/05/09 10:40:47;;;;;;;12.20;8.73;;;;;;;;;;4922781;29;20386;-69
2023/05/09 10:43:32;;;;;;;12.82;7.35;;;;;;;;;;4934950;29;20398;-71
2023/05/09 10:46:17;;;;;;;14.68;9.23;;;;;;;;;;4929551;29;20041;-68
2023/05/09 10:49:02;;;;;;;11.00;7.55;;;;;;;;;;4926531;29;20113;-69
2023/05/09 10:51:51;;;;;;;14.23;7.57;;;;;;;;;;4935955;28;20066;-69
2023/05/09 10:54:36;;;;;;;16.48;7.07;;;;;;;;;;4931790;29;20540;-68
2023/05/09 10:57:21;;;;;;;11.50;6.05;;;;;;;;;;4927129;29;20032;-68
2023/05/09 11:00:07;;;;;;;9.13;6.63;;;;;;;;;;4928545;29;20526;-67
2023/05/09 11:03:06;;;;;;;14.05;8.18;;;;;;;;;;4926667;29;20020;-68
2023/05/09 11:05:53;;;;;;;14.10;9.02;;;;;;;;;;4941082;28;20395;-69
2023/05/09 11:08:41;;;;;;;12.32;8.23;;;;;;;;;;4939303;28;20051;-72
2023/05/09 11:11:26;;;;;;;11.80;7.35;;;;;;;;;;4924155;29;20040;-71
2023/05/09 11:14:27;;;;;;;9.85;7.47;;;;;;;;;;4924288;29;20071;-70
2023/05/09 11:17:21;;;;;;;16.13;7.43;;;;;;;;;;4926678;29;20035;-71
2023/05/09 11:20:07;;;;;;;12.82;7.10;;;;;;;;;;4933337;28;20044;-72
2023/05/09 11:22:52;;;;;;;10.13;5.25;;;;;;;;;;4924982;28;20043;-68
2023/05/09 11:25:38;;;;;;;7.68;5.25;;;;;;;;;;4957523;28;20042;-71
2023/05/09 11:28:28;;;;;;;9.77;5.50;;;;;;;;;;4931181;28;20035;-70
2023/05/09 11:31:14;;;;;;;7.93;4.22;;;;;;;;;;4927985;29;20631;-69
2023/05/09 11:34:02;;;;;;;3.15;2.40;;;;;;;;;;4923754;29;20119;-70
2023/05/09 11:36:48;;;;;;;6.25;3.85;;;;;;;;;;4926143;29;20020;-69
2023/05/09 11:39:34;;;;;;;6.55;3.92;;;;;;;;;;4936873;28;20506;-70
2023/05/09 11:42:21;;;;;;;7.10;3.60;;;;;;;;;;4925083;29;20042;-68
2023/05/09 11:45:08;;;;;;;4.35;2.95;;;;;;;;;;4925381;29;20056;-69
2023/05/09 11:47:53;;;;;;;4.07;2.50;;;;;;;;;;4927321;29;20055;-70
2023/05/09 11:50:40;;;;;;;6.07;3.28;;;;;;;;;;4938646;28;20063;-69
2023/05/09 11:53:25;;;;;;;3.92;3.10;;;;;;;;;;4940115;28;20441;-69
2023/05/09 11:56:10;;;;;;;5.97;3.33;;;;;;;;;;4933832;28;20023;-69
2023/05/09 11:58:55;;;;;;;3.30;2.63;;;;;;;;;;4924953;29;20038;-67
2023/05/09 12:01:41;;;;;;;4.63;3.22;;;;;;;;;;4925941;29;20047;-67
2023/05/09 12:04:27;;;;;;;4.53;2.92;;;;;;;;;;4939410;28;20036;-70
2023/05/09 12:07:12;;;;;;;3.70;2.33;;;;;;;;;;4926825;28;20082;-67
2023/05/09 12:09:58;;;;;;;3.35;2.38;;;;;;;;;;4920480;29;20126;-70
2023/05/09 12:12:44;;;;;;;4.68;2.25;;;;;;;;;;4925870;29;20035;-70
2023/05/09 12:15:35;;;;;;;2.30;1.85;;;;;;;;;;4941154;28;20066;-66
2023/05/09 12:18:20;;;;;;;3.40;1.90;;;;;;;;;;4927060;29;20043;-69
2023/05/09 12:21:06;;;;;;;5.25;2.78;;;;;;;;;;4924543;29;20312;-69
2023/05/09 12:23:54;;;;;;;2.88;2.00;;;;;;;;;;4940336;28;20042;-69
2023/05/09 12:26:39;;;;;;;2.78;1.60;;;;;;;;;;4926631;29;20055;-69
2023/05/09 12:29:25;;;;;;;1.58;1.48;;;;;;;;;;4928384;29;20035;-69
2023/05/09 12:32:12;;;;;;;1.65;1.48;;;;;;;;;;4938905;28;20761;-70
2023/05/09 12:34:58;;;;;;;2.28;1.30;;;;;;;;;;4926035;29;20098;-71
2023/05/09 12:37:53;;;;;;;1.92;1.50;;;;;;;;;;4930834;28;20063;-67
2023/05/09 12:40:40;;;;;;;2.45;1.42;;;;;;;;;;4934992;28;20561;-66
2023/05/09 12:43:25;;;;;;;3.38;1.55;;;;;;;;;;4925726;29;20143;-67
2023/05/09 12:46:10;;;;;;;2.03;1.73;;;;;;;;;;4926769;29;20036;-68
2023/05/09 12:48:56;;;;;;;1.70;1.55;;;;;;;;;;4924117;29;20522;-70
2023/05/09 12:51:47;;;;;;;1.92;1.50;;;;;;;;;;4942299;28;20043;-67
2023/05/09 12:54:32;;;;;;;2.75;1.80;;;;;;;;;;4927016;29;20041;-69
2023/05/09 12:57:26;;;;;;;4.10;1.88;;;;;;;;;;4924228;29;20632;-71
2023/05/09 13:00:11;;;;;;;3.70;1.85;;;;;;;;;;4944995;28;20036;-66
2023/05/09 13:02:56;;;;;;;2.17;1.63;;;;;;;;;;4928394;29;20347;-68
2023/05/09 13:05:42;;;;;;;1.83;1.50;;;;;;;;;;4925906;28;20032;-67
2023/05/09 13:08:28;;;;;;;2.88;1.42;;;;;;;;;;4927895;28;20047;-66
2023/05/09 13:11:16;;;;;;;4.78;1.63;;;;;;;;;;4924011;29;20043;-66
2023/05/09 13:14:02;;;;;;;2.40;1.60;;;;;;;;;;4919928;28;20103;-69
2023/05/09 13:16:48;;;;;;;2.90;1.90;;;;;;;;;;4922466;29;20019;-67
2023/05/09 13:19:38;;;;;;;2.90;2.08;;;;;;;;;;4925332;29;20059;-66
2023/05/09 13:22:23;;;;;;;1.50;1.40;;;;;;;;;;4923805;29;20715;-67
2023/05/09 13:25:08;;;;;;;2.13;1.73;;;;;;;;;;4923241;29;20162;-68
2023/05/09 13:27:53;;;;;;;2.17;1.67;;;;;;;;;;4921543;29;20118;-69
2023/05/09 13:30:39;;;;;;;2.42;1.90;;;;;;;;;;4923697;29;20032;-68
2023/05/09 13:33:24;;;;;;;3.20;1.67;;;;;;;;;;4934728;29;20035;-68
2023/05/09 13:36:09;;;;;;;3.22;1.60;;;;;;;;;;4922828;29;20027;-69
2023/05/09 13:38:55;;;;;;;2.35;1.92;;;;;;;;;;4928690;29;20482;-66
2023/05/09 13:41:40;;;;;;;1.95;1.52;;;;;;;;;;4928351;29;20039;-66
2023/05/09 13:44:25;;;;;;;3.85;1.50;;;;;;;;;;4926423;29;20032;-67
2023/05/09 13:47:10;;;;;;;3.10;1.52;;;;;;;;;;4926518;29;20119;-66
2023/05/09 13:49:56;;;;;;;2.78;1.70;;;;;;;;;;4925961;29;20118;-72
2023/05/09 13:52:41;;;;;;;2.35;1.67;;;;;;;;;;4932600;28;20475;-66
2023/05/09 13:55:26;;;;;;;3.40;2.00;;;;;;;;;;4926935;28;20032;-66
2023/05/09 13:58:11;;;;;;;2.67;1.85;;;;;;;;;;4924043;29;20028;-68
2023/05/09 14:00:57;;;;;;;2.85;1.83;;;;;;;;;;4928048;29;20035;-68
2023/05/09 14:03:42;;;;;;;1.83;1.50;;;;;;;;;;4940533;28;20069;-66
2023/05/09 14:06:30;;;;;;;4.45;2.03;;;;;;;;;;4933196;28;20120;-66
2023/05/09 14:09:16;;;;;;;4.30;2.10;;;;;;;;;;4925416;29;20039;-70
2023/05/09 14:12:01;;;;;;;4.75;2.05;;;;;;;;;;4928956;29;20036;-66
2023/05/09 14:14:46;;;;;;;3.22;1.70;;;;;;;;;;4926570;29;20046;-67
2023/05/09 14:17:31;;;;;;;2.90;2.05;;;;;;;;;;4928033;29;20101;-65
2023/05/09 14:20:17;;;;;;;3.53;1.92;;;;;;;;;;4925138;29;20046;-67
2023/05/09 14:23:02;;;;;;;2.60;2.13;;;;;;;;;;4926328;29;20931;-65
2023/05/09 14:25:47;;;;;;;3.25;2.05;;;;;;;;;;4926785;28;20034;-68
2023/05/09 14:28:33;;;;;;;2.40;1.52;;;;;;;;;;4928458;29;20039;-65
2023/05/09 14:31:18;;;;;;;3.10;1.88;;;;;;;;;;4928567;29;20036;-67
2023/05/09 14:34:04;;;;;;;3.10;2.03;;;;;;;;;;4927232;29;20061;-66
2023/05/09 14:36:49;;;;;;;4.03;2.22;;;;;;;;;;4936288;29;20231;-65
2023/05/09 14:39:35;;;;;;;3.25;1.90;;;;;;;;;;4922883;29;20059;-67
2023/05/09 14:42:20;;;;;;;1.88;1.65;;;;;;;;;;4927496;29;20039;-65
2023/05/09 14:45:06;;;;;;;6.35;2.17;;;;;;;;;;4927746;28;20036;-72
2023/05/09 14:47:52;;;;;;;3.70;1.88;;;;;;;;;;4921558;28;20028;-67
2023/05/09 14:50:37;;;;;;;1.73;1.50;;;;;;;;;;4922558;29;20399;-67
2023/05/09 14:53:22;;;;;;;3.03;2.03;;;;;;;;;;4929797;29;20044;-70
2023/05/09 14:56:09;;;;;;;2.75;1.27;;;;;;;;;;4929329;29;20122;-69
2023/05/09 14:58:55;;;;;;;2.80;1.50;;;;;;;;;;4921718;28;20451;-68
2023/05/09 15:01:40;;;;;;;2.38;1.52;;;;;;;;;;4930738;29;20054;-66
2023/05/09 15:04:29;;;;;;;1.55;1.40;;;;;;;;;;4927492;28;20135;-66
2023/05/09 15:07:14;;;;;;;1.42;1.30;;;;;;;;;;4920763;28;20260;-68
2023/05/09 15:10:00;;;;;;;3.20;1.50;;;;;;;;;;4932964;29;20066;-67
2023/05/09 15:12:46;;;;;;;1.70;1.50;;;;;;;;;;4928890;29;20067;-65
2023/05/09 15:15:32;;;;;;;1.90;1.08;;;;;;;;;;4938724;28;20523;-67
2023/05/09 15:18:18;;;;;;;3.80;1.63;;;;;;;;;;4929198;29;20031;-67
2023/05/09 15:21:04;;;;;;;2.13;1.85;;;;;;;;;;4931721;29;20043;-67
2023/05/09 15:23:49;;;;;;;1.30;1.20;;;;;;;;;;4927484;28;20035;-76
2023/05/09 15:26:34;;;;;;;1.35;1.10;;;;;;;;;;4928489;29;20630;-69
2023/05/09 15:29:20;;;;;;;1.17;1.08;;;;;;;;;;4941734;28;20558;-69
2023/05/09 15:32:05;;;;;;;5.43;1.98;;;;;;;;;;4925383;29;20093;-72
2023/05/09 15:34:51;;;;;;;2.25;1.65;;;;;;;;;;4919704;29;20505;-68
2023/05/09 15:37:36;;;;;;;9.55;1.50;;;;;;;;;;4917284;28;20111;-69
2023/05/09 15:40:21;;;;;;;3.10;1.35;;;;;;;;;;4933800;29;20030;-66
2023/05/09 15:43:07;;;;;;;1.17;1.08;;;;;;;;;;4928192;29;20044;-65
2023/05/09 15:45:52;;;;;;;1.75;1.35;;;;;;;;;;4921418;29;20029;-67
2023/05/09 15:48:37;;;;;;;3.33;1.48;;;;;;;;;;4925628;29;20039;-66
2023/05/09 15:51:23;;;;;;;1.98;1.35;;;;;;;;;;4925575;28;20039;-68
2023/05/09 15:54:08;;;;;;;1.27;1.10;;;;;;;;;;4920676;28;20035;-68
2023/05/09 15:56:53;;;;;;;3.35;1.50;;;;;;;;;;4915854;28;20146;-65
2023/05/09 15:59:38;;;;;;;2.05;1.45;;;;;;;;;;4923965;29;20039;-69
2023/05/09 16:02:24;;;;;;;2.28;1.60;;;;;;;;;;4927259;29;20031;-71
2023/05/09 16:05:09;;;;;;;1.75;1.23;;;;;;;;;;4979555;28;20074;-70
2023/05/09 16:07:55;;;;;;;1.48;1.25;;;;;;;;;;4943299;28;20458;-71
2023/05/09 16:10:40;;;;;;;2.58;1.40;;;;;;;;;;4921764;29;20831;-72
2023/05/09 16:13:25;;;;;;;5.65;1.83;;;;;;;;;;4935102;29;20028;-72
2023/05/09 16:16:11;;;;;;;6.80;1.90;;;;;;;;;;4927206;28;20426;-71
2023/05/09 16:18:56;;;;;;;2.80;1.63;;;;;;;;;;4936335;29;20047;-67